Time;durP1;ratioP1;P1;durP2;ratioP2;P2;SDS_P1;SDS_P2;PMS_P1;PMS_P2;Temp;Humidity;BMP_temperature;BMP_pressure;BME280_temperature;BME280_humidity;BME280_pressure;Samples;Min_cycle;Max_cycle;Signal;HPM_P1;HPM_P2
2022/06/12 00:00:40;;;;;;;6.38;4.78;;;;;;;17.79;75.51;95202.75;5005370;28;20500;-84
2022/06/12 00:03:07;;;;;;;8.27;5.15;;;;;;;17.69;75.84;95197.88;4988898;28;20026;-87
2022/06/12 00:05:34;;;;;;;7.63;5.38;;;;;;;17.65;76.33;95200.22;5005279;28;20132;-83
2022/06/12 00:08:00;;;;;;;10.85;5.38;;;;;;;17.73;76.00;95198.25;4972903;28;20030;-83
2022/06/12 00:10:25;;;;;;;7.80;5.38;;;;;;;17.72;76.22;95204.72;5005207;28;20080;-85
2022/06/12 00:12:51;;;;;;;7.15;5.63;;;;;;;17.75;76.36;95198.88;5021804;28;20508;-83
2022/06/12 00:15:18;;;;;;;6.03;5.03;;;;;;;17.76;76.20;95195.94;5004641;28;20042;-83
2022/06/12 00:17:44;;;;;;;8.35;5.50;;;;;;;17.81;75.94;95191.69;5005402;28;20040;-85
2022/06/12 00:20:14;;;;;;;6.70;5.72;;;;;;;17.77;75.79;95191.31;5021306;28;20034;-84
2022/06/12 00:22:40;;;;;;;7.25;5.30;;;;;;;17.78;75.81;95192.97;5021867;28;20467;-83
2022/06/12 00:25:09;;;;;;;8.07;5.68;;;;;;;17.76;75.36;95193.22;5005193;28;20496;-83
2022/06/12 00:27:35;;;;;;;6.13;5.53;;;;;;;17.83;75.18;95184.97;5005298;28;20030;-84
2022/06/12 00:30:00;;;;;;;9.52;5.55;;;;;;;17.78;75.33;95190.28;5006642;28;20025;-83
2022/06/12 00:32:28;;;;;;;7.53;5.10;;;;;;;17.74;75.43;95187.19;5006658;28;20053;-83
2022/06/12 00:34:53;;;;;;;7.50;5.25;;;;;;;17.71;75.68;95184.09;4973558;28;20099;-82
2022/06/12 00:37:21;;;;;;;8.35;6.10;;;;;;;17.64;76.00;95187.72;5006504;28;20414;-84
2022/06/12 00:39:47;;;;;;;7.30;5.82;;;;;;;17.71;75.55;95184.09;4993775;28;20053;-83
2022/06/12 00:42:42;;;;;;;7.80;5.15;;;;;;;17.67;75.45;95197.28;5025761;28;20038;-83
2022/06/12 00:45:29;;;;;;;6.63;5.03;;;;;;;17.62;75.98;95195.25;5010350;28;20042;-83
2022/06/12 00:48:05;;;;;;;10.65;5.20;;;;;;;17.63;75.86;95182.53;5008505;28;20030;-84
2022/06/12 00:50:31;;;;;;;8.13;5.35;;;;;;;17.52;76.18;95184.13;5009394;28;20026;-84
2022/06/12 00:52:56;;;;;;;6.78;5.20;;;;;;;17.57;75.83;95192.41;4990317;28;20030;-84
2022/06/12 00:55:46;;;;;;;6.32;5.10;;;;;;;17.65;76.04;95194.78;5022118;28;20030;-84
2022/06/12 00:58:15;;;;;;;8.43;6.00;;;;;;;17.56;76.29;95190.72;5005708;28;20026;-85
2022/06/12 01:00:41;;;;;;;7.65;5.68;;;;;;;17.59;76.16;95187.56;4992717;28;20449;-84
2022/06/12 01:03:06;;;;;;;9.48;5.70;;;;;;;17.44;76.59;95187.13;4992720;28;20018;-84
2022/06/12 01:08:16;;;;;;;6.72;5.50;;;;;;;17.21;77.12;95173.22;4995338;28;20064;-84
2022/06/12 01:10:42;;;;;;;9.63;5.57;;;;;;;17.16;77.01;95187.44;4992896;28;20018;-83
2022/06/12 01:13:11;;;;;;;7.47;5.00;;;;;;;17.34;76.38;95183.06;5008860;28;20420;-84
2022/06/12 01:15:42;;;;;;;6.88;4.50;;;;;;;17.23;76.89;95181.13;5025394;28;20520;-83
2022/06/12 01:18:10;;;;;;;8.02;5.90;;;;;;;16.98;78.01;95176.53;4993186;28;20107;-84
2022/06/12 01:20:41;;;;;;;6.05;5.40;;;;;;;17.09;77.31;95172.31;5025714;28;20030;-84
2022/06/12 01:23:18;;;;;;;8.45;5.43;;;;;;;17.22;77.29;95176.75;4993687;28;20641;-84
2022/06/12 01:25:54;;;;;;;6.10;5.00;;;;;;;17.28;76.98;95178.56;5010451;28;20564;-84
2022/06/12 01:28:42;;;;;;;7.22;5.00;;;;;;;17.34;76.84;95171.41;5025625;28;20109;-85
2022/06/12 01:31:38;;;;;;;6.22;5.05;;;;;;;17.37;76.96;95176.38;5008942;28;20500;-83
2022/06/12 01:34:16;;;;;;;8.10;5.53;;;;;;;17.45;76.49;95167.94;5008825;28;20519;-82
2022/06/12 01:37:00;;;;;;;6.15;5.55;;;;;;;17.45;76.82;95170.66;5009338;28;20453;-84
2022/06/12 01:39:25;;;;;;;7.85;5.55;;;;;;;17.46;76.94;95172.28;5008674;28;20064;-84
2022/06/12 01:41:53;;;;;;;7.93;5.68;;;;;;;17.56;76.49;95169.03;5008235;28;20461;-84
2022/06/12 01:44:25;;;;;;;6.88;5.55;;;;;;;17.52;76.78;95163.25;5008828;28;20037;-84
2022/06/12 01:47:03;;;;;;;8.05;5.53;;;;;;;17.54;76.52;95163.00;5008581;28;20065;-82
2022/06/12 01:49:39;;;;;;;8.50;6.20;;;;;;;17.64;76.09;95159.75;4993777;28;20042;-85
2022/06/12 01:52:28;;;;;;;8.27;6.30;;;;;;;17.54;76.54;95154.88;4992788;28;20088;-84
2022/06/12 01:55:27;;;;;;;6.68;5.93;;;;;;;17.47;76.43;95159.56;4991486;28;20113;-87
2022/06/12 01:58:06;;;;;;;7.95;5.82;;;;;;;17.46;76.50;95157.94;5008037;28;20037;-85
2022/06/12 02:00:32;;;;;;;7.82;5.53;;;;;;;17.45;76.20;95161.66;5008806;28;20038;-83
2022/06/12 02:03:25;;;;;;;7.53;6.28;;;;;;;17.29;76.36;95169.38;5008097;28;20033;-84
2022/06/12 02:05:57;;;;;;;12.43;6.05;;;;;;;17.35;76.15;95168.47;4992836;28;20085;-83
2022/06/12 02:08:38;;;;;;;7.32;5.82;;;;;;;17.42;76.33;95169.22;5008288;28;20052;-84
2022/06/12 02:14:07;;;;;;;;;;;;;;;17.48;75.56;95172.91;5024456;28;20523;-83
2022/06/12 02:16:35;;;;;;;6.55;5.57;;;;;;;17.38;75.93;95176.13;5007602;28;19917;-83
2022/06/12 02:19:14;;;;;;;6.20;5.45;;;;;;;17.43;75.88;95170.03;5008372;28;20037;-83
2022/06/12 02:21:49;;;;;;;7.47;5.60;;;;;;;17.28;76.22;95167.72;4994006;28;20072;-83
2022/06/12 02:24:29;;;;;;;8.65;6.40;;;;;;;17.32;75.98;95168.06;5037434;28;20140;-83
2022/06/12 02:27:06;;;;;;;5.90;5.30;;;;;;;17.29;76.50;95163.94;5033512;28;20069;-85
2022/06/12 02:29:59;;;;;;;8.10;5.97;;;;;;;17.38;75.95;95169.88;4983513;28;20052;-82
2022/06/12 02:32:38;;;;;;;;;;;;;;;17.42;75.49;95171.94;5033700;28;20029;-83
2022/06/12 02:35:12;;;;;;;6.22;5.55;;;;;;;17.46;75.56;95164.16;5012022;28;20419;-83
2022/06/12 02:37:44;;;;;;;8.65;5.10;;;;;;;17.41;75.49;95170.25;4991886;28;20033;-85
2022/06/12 02:40:17;;;;;;;7.72;5.70;;;;;;;17.44;75.08;95165.44;4990627;28;20026;-82
2022/06/12 02:42:44;;;;;;;9.82;5.28;;;;;;;17.38;74.93;95173.44;4991154;28;20037;-85
2022/06/12 02:45:23;;;;;;;7.40;5.25;;;;;;;17.27;75.63;95171.47;4992190;28;20030;-83
2022/06/12 02:47:49;;;;;;;8.55;5.38;;;;;;;17.31;75.48;95175.41;4991534;28;20038;-84
2022/06/12 02:50:15;;;;;;;6.88;5.45;;;;;;;17.26;75.69;95180.66;5007943;28;20029;-83
2022/06/12 02:52:45;;;;;;;7.13;5.47;;;;;;;17.28;75.27;95178.56;4975041;28;20459;-83
2022/06/12 02:55:32;;;;;;;7.05;5.50;;;;;;;17.31;75.28;95180.81;4991413;28;20025;-83
2022/06/12 02:58:13;;;;;;;7.53;5.57;;;;;;;17.31;75.03;95183.53;5008437;28;20501;-82
2022/06/12 03:00:59;;;;;;;7.80;5.38;;;;;;;17.25;75.59;95187.16;5006468;28;20049;-85
2022/06/12 03:03:38;;;;;;;6.70;5.60;;;;;;;17.16;75.80;95176.59;5007549;28;20068;-83
2022/06/12 03:06:03;;;;;;;8.30;5.50;;;;;;;17.25;76.00;95176.31;5007413;28;20125;-87
2022/06/12 03:08:36;;;;;;;7.97;5.15;;;;;;;17.28;75.80;95175.84;5007652;28;20026;-85
2022/06/12 03:11:20;;;;;;;6.20;5.45;;;;;;;17.34;75.64;95177.66;5007317;28;20041;-85
2022/06/12 03:13:46;;;;;;;6.82;5.57;;;;;;;17.36;75.11;95174.72;5025385;28;20455;-85
2022/06/12 03:16:15;;;;;;;7.85;5.68;;;;;;;17.38;75.24;95175.28;5006544;28;20116;-84
2022/06/12 03:18:43;;;;;;;7.03;5.45;;;;;;;17.46;75.32;95182.31;5007305;28;20038;-83
2022/06/12 03:21:41;;;;;;;7.28;5.32;;;;;;;17.42;75.32;95177.34;5006928;28;20026;-84
2022/06/12 03:24:45;;;;;;;6.55;5.45;;;;;;;17.41;75.52;95166.75;5033595;28;20095;-82
2022/06/12 03:27:22;;;;;;;6.68;5.50;;;;;;;17.49;74.79;95171.84;5036624;28;20460;-84
2022/06/12 03:29:52;;;;;;;8.38;5.72;;;;;;;17.37;74.97;95181.78;5007894;28;20125;-89
2022/06/12 03:32:29;;;;;;;8.38;6.30;;;;;;;17.35;75.27;95182.00;5006154;28;20030;-84
2022/06/12 03:35:08;;;;;;;7.03;6.00;;;;;;;17.42;74.84;95174.66;5007203;28;20030;-85
2022/06/12 03:37:45;;;;;;;7.72;5.90;;;;;;;17.34;75.34;95172.22;5006214;28;20084;-84
2022/06/12 03:40:35;;;;;;;9.35;6.05;;;;;;;17.33;75.53;95172.47;4989888;28;20061;-83
2022/06/12 03:43:10;;;;;;;7.22;5.97;;;;;;;17.37;74.88;95171.78;5004613;28;20057;-84
2022/06/12 03:45:48;;;;;;;7.28;6.15;;;;;;;17.30;75.53;95171.84;5005945;28;20030;-84
2022/06/12 03:48:23;;;;;;;8.20;5.95;;;;;;;17.23;75.62;95170.28;4990588;28;20030;-86
2022/06/12 03:50:58;;;;;;;8.15;6.38;;;;;;;17.26;76.00;95173.38;4991043;28;20559;-84
2022/06/12 03:53:35;;;;;;;6.68;5.97;;;;;;;17.27;75.70;95172.31;4994961;28;20052;-84
2022/06/12 03:59:13;;;;;;;7.70;6.15;;;;;;;17.34;75.61;95165.97;5020318;28;20061;-85
2022/06/12 04:01:40;;;;;;;6.28;5.65;;;;;;;17.29;75.61;95166.66;5004529;28;20041;-84
2022/06/12 04:04:06;;;;;;;6.68;5.97;;;;;;;17.21;75.52;95167.78;4990070;28;20033;-84
2022/06/12 04:06:31;;;;;;;7.75;5.88;;;;;;;17.29;75.06;95169.38;5005517;28;20026;-84
2022/06/12 04:09:04;;;;;;;7.53;5.88;;;;;;;17.19;75.13;95178.03;5006316;28;20029;-85
2022/06/12 04:11:31;;;;;;;6.47;5.85;;;;;;;17.29;74.98;95182.91;5022354;28;20028;-85
2022/06/12 04:13:56;;;;;;;6.60;5.90;;;;;;;17.39;74.86;95187.81;5005435;28;20030;-83
2022/06/12 04:16:55;;;;;;;6.82;6.13;;;;;;;17.37;74.88;95187.19;5005834;28;20057;-85
2022/06/12 04:19:23;;;;;;;7.43;6.43;;;;;;;17.28;75.63;95190.22;5016433;28;20042;-85
2022/06/12 04:21:51;;;;;;;7.90;7.07;;;;;;;17.37;75.41;95190.75;4990148;28;20041;-85
2022/06/12 04:24:39;;;;;;;10.05;6.63;;;;;;;17.30;75.87;95187.28;5007160;28;20440;-86
2022/06/12 04:27:27;;;;;;;8.80;6.82;;;;;;;17.28;75.97;95194.81;5009172;28;20036;-84
2022/06/12 04:29:57;;;;;;;7.68;6.60;;;;;;;17.28;75.72;95195.63;5005232;28;20496;-86
2022/06/12 04:32:22;;;;;;;9.18;7.47;;;;;;;17.37;76.18;95198.88;5005429;28;20083;-84
2022/06/12 04:34:48;;;;;;;9.45;7.72;;;;;;;17.45;76.09;95194.19;5006937;28;20109;-85
2022/06/12 04:37:15;;;;;;;11.68;7.45;;;;;;;17.57;75.59;95195.13;5025628;28;20149;-83
2022/06/12 04:39:41;;;;;;;9.82;7.72;;;;;;;17.52;76.04;95198.47;4993329;28;20405;-84
2022/06/12 04:42:07;;;;;;;8.07;7.35;;;;;;;17.73;75.39;95203.69;4992647;28;20069;-84
2022/06/12 04:44:32;;;;;;;8.68;7.05;;;;;;;17.89;74.55;95207.66;5025310;28;20033;-84
2022/06/12 04:46:59;;;;;;;9.27;7.53;;;;;;;18.12;73.95;95209.66;5009041;28;20030;-84
2022/06/12 04:49:26;;;;;;;8.68;7.38;;;;;;;18.19;73.69;95212.28;4992812;28;20056;-85
2022/06/12 04:51:52;;;;;;;10.60;8.48;;;;;;;18.29;73.23;95209.00;5026044;28;20029;-88
2022/06/12 04:54:18;;;;;;;9.55;7.55;;;;;;;18.31;72.94;95206.06;5010570;28;20101;-84
2022/06/12 04:56:44;;;;;;;8.75;7.38;;;;;;;18.15;73.48;95211.91;5009237;28;20396;-85
2022/06/12 04:59:10;;;;;;;8.95;7.20;;;;;;;18.08;73.42;95203.00;5008377;28;20159;-83
2022/06/12 05:01:36;;;;;;;9.40;7.18;;;;;;;18.11;73.05;95216.13;5009630;28;20054;-84
2022/06/12 05:04:02;;;;;;;8.95;8.05;;;;;;;18.18;73.43;95217.94;5010001;28;20037;-84
2022/06/12 05:06:27;;;;;;;10.75;8.00;;;;;;;18.33;72.70;95218.31;5008768;28;20026;-83
2022/06/12 05:08:53;;;;;;;8.45;7.55;;;;;;;18.35;72.90;95216.22;5010241;28;20026;-83
2022/06/12 05:11:18;;;;;;;11.27;7.57;;;;;;;18.38;72.60;95218.47;4992601;28;20079;-84
2022/06/12 05:13:44;;;;;;;10.13;7.38;;;;;;;18.45;72.69;95212.09;4976956;28;20029;-86
2022/06/12 05:16:23;;;;;;;8.95;7.80;;;;;;;18.38;72.38;95207.59;5008147;28;20042;-83
2022/06/12 05:18:48;;;;;;;9.35;7.15;;;;;;;18.23;73.14;95209.94;5009175;28;20105;-85
2022/06/12 05:21:13;;;;;;;9.57;7.82;;;;;;;18.29;73.01;95211.72;5024867;28;20065;-85
2022/06/12 05:23:39;;;;;;;11.05;8.23;;;;;;;18.41;72.43;95212.56;5008411;28;20060;-83
2022/06/12 05:26:06;;;;;;;9.05;7.65;;;;;;;18.37;72.59;95214.13;4992305;28;20029;-83
2022/06/12 05:28:31;;;;;;;9.13;7.57;;;;;;;18.38;72.13;95215.75;5009322;28;20097;-85
2022/06/12 05:30:57;;;;;;;11.10;7.65;;;;;;;18.42;72.58;95210.69;5025139;28;20057;-85
2022/06/12 05:33:22;;;;;;;8.75;7.53;;;;;;;18.39;72.30;95214.69;4991934;28;20488;-84
2022/06/12 05:35:47;;;;;;;9.15;7.57;;;;;;;18.31;72.85;95212.31;4992524;28;20026;-85
2022/06/12 05:38:13;;;;;;;9.13;8.10;;;;;;;18.32;73.29;95213.97;4992333;28;20099;-85
2022/06/12 05:40:39;;;;;;;8.65;7.70;;;;;;;18.32;73.57;95219.41;4993174;28;20034;-85
2022/06/12 05:43:05;;;;;;;11.25;7.60;;;;;;;18.31;73.36;95228.63;5009065;28;20089;-85
2022/06/12 05:45:30;;;;;;;9.60;7.65;;;;;;;18.35;73.33;95229.78;5024962;28;20026;-86
2022/06/12 05:47:58;;;;;;;10.73;7.45;;;;;;;18.31;73.21;95228.63;5024900;28;20018;-83
2022/06/12 05:50:26;;;;;;;10.90;8.10;;;;;;;18.17;73.93;95222.53;5007236;28;20080;-83
2022/06/12 05:52:51;;;;;;;8.60;7.70;;;;;;;17.91;74.42;95224.53;5008707;28;20421;-87
2022/06/12 05:55:17;;;;;;;8.02;7.22;;;;;;;18.00;74.34;95223.16;4991104;28;20026;-85
2022/06/12 05:57:42;;;;;;;9.13;8.23;;;;;;;18.01;74.58;95222.09;4991961;28;20033;-82
2022/06/12 06:00:11;;;;;;;9.23;8.15;;;;;;;18.02;74.44;95231.88;5025866;28;20522;-85
2022/06/12 06:02:38;;;;;;;8.75;7.80;;;;;;;18.11;74.21;95226.13;5007829;28;20030;-85
2022/06/12 06:05:07;;;;;;;10.55;8.10;;;;;;;17.90;74.57;95222.88;4991533;28;20044;-85
2022/06/12 06:07:33;;;;;;;8.77;7.85;;;;;;;17.98;74.20;95219.84;4991420;28;20489;-84
2022/06/12 06:10:00;;;;;;;9.45;7.82;;;;;;;18.00;74.31;95234.00;4991343;28;20036;-83
2022/06/12 06:12:25;;;;;;;10.55;8.10;;;;;;;17.90;74.43;95229.13;5008127;28;20071;-83
2022/06/12 06:14:50;;;;;;;10.68;8.48;;;;;;;17.99;74.39;95234.25;5008962;28;20034;-83
2022/06/12 06:17:16;;;;;;;9.75;8.25;;;;;;;17.96;74.70;95232.78;4990445;28;20083;-83
2022/06/12 06:19:41;;;;;;;9.68;8.38;;;;;;;18.15;74.48;95241.75;5007658;28;20026;-84
2022/06/12 06:22:07;;;;;;;9.20;7.70;;;;;;;18.21;74.32;95242.75;4990754;28;20064;-84
2022/06/12 06:24:32;;;;;;;8.82;7.93;;;;;;;18.23;74.33;95234.38;5023334;28;20041;-83
2022/06/12 06:26:58;;;;;;;9.35;7.85;;;;;;;18.30;73.29;95251.38;5007119;28;20516;-84
2022/06/12 06:29:23;;;;;;;9.02;8.13;;;;;;;18.26;73.33;95252.91;4989903;28;20050;-83
2022/06/12 06:31:48;;;;;;;8.73;7.82;;;;;;;18.30;73.90;95261.41;5006971;28;20026;-83
2022/06/12 06:34:14;;;;;;;8.82;7.68;;;;;;;18.37;73.80;95257.56;5006840;28;20038;-83
2022/06/12 06:36:40;;;;;;;8.93;8.02;;;;;;;18.43;73.33;95257.69;4990589;28;20029;-83
2022/06/12 06:39:06;;;;;;;8.82;7.75;;;;;;;18.40;73.51;95265.22;5023330;28;20095;-84
2022/06/12 06:41:32;;;;;;;10.63;7.95;;;;;;;18.51;72.81;95266.31;5023398;28;20029;-83
2022/06/12 06:46:41;;;;;;;9.30;7.57;;;;;;;18.55;73.03;95266.69;4992585;28;20029;-83
2022/06/12 06:49:07;;;;;;;8.40;7.50;;;;;;;18.54;72.58;95265.00;4990575;28;20428;-84
2022/06/12 06:51:33;;;;;;;8.85;7.35;;;;;;;18.57;72.48;95267.25;4989950;28;20096;-83
2022/06/12 06:53:58;;;;;;;8.50;7.63;;;;;;;18.76;72.47;95270.75;4990271;28;20050;-83
2022/06/12 06:56:24;;;;;;;7.95;7.15;;;;;;;18.80;72.16;95265.69;5006076;28;20040;-84
2022/06/12 06:58:49;;;;;;;9.90;7.50;;;;;;;18.97;71.59;95267.72;5022450;28;20066;-83
2022/06/12 07:01:15;;;;;;;8.55;7.68;;;;;;;18.93;71.84;95269.22;4990601;28;20060;-83
2022/06/12 07:03:40;;;;;;;8.55;7.00;;;;;;;19.07;71.75;95265.22;5006332;28;20550;-83
2022/06/12 07:06:06;;;;;;;9.25;7.13;;;;;;;19.21;71.57;95262.31;5006589;28;20078;-83
2022/06/12 07:08:31;;;;;;;7.50;6.80;;;;;;;19.32;70.54;95266.09;5005830;28;20040;-85
2022/06/12 07:10:57;;;;;;;8.32;7.43;;;;;;;19.25;70.75;95258.06;5009558;28;20543;-83
2022/06/12 07:13:23;;;;;;;7.65;6.85;;;;;;;19.25;70.86;95268.94;5010842;28;20112;-85
2022/06/12 07:15:48;;;;;;;8.38;7.45;;;;;;;19.21;71.54;95265.03;4990087;28;20040;-83
2022/06/12 07:18:14;;;;;;;9.32;7.47;;;;;;;19.28;71.04;95268.50;4974184;28;20312;-84
2022/06/12 07:20:46;;;;;;;8.52;6.57;;;;;;;19.37;70.06;95272.50;5022807;28;20400;-83
2022/06/12 07:23:14;;;;;;;;;;;;;;;19.41;70.03;95272.84;5007928;28;20021;-84
2022/06/12 07:25:43;;;;;;;9.15;6.90;;;;;;;19.39;70.57;95269.53;5006237;28;19913;-83
2022/06/12 07:28:08;;;;;;;9.13;7.10;;;;;;;19.42;70.27;95273.66;4990961;28;20029;-83
2022/06/12 07:30:34;;;;;;;10.48;7.00;;;;;;;19.49;69.83;95275.19;5007502;28;20488;-84
2022/06/12 07:33:00;;;;;;;8.23;6.25;;;;;;;19.41;69.99;95275.56;5006285;28;20026;-84
2022/06/12 07:35:25;;;;;;;8.23;6.57;;;;;;;19.51;70.05;95280.41;4989597;28;20030;-85
2022/06/12 07:37:50;;;;;;;7.28;6.45;;;;;;;19.61;68.86;95280.63;5022610;28;20030;-85
2022/06/12 07:40:19;;;;;;;10.48;6.40;;;;;;;19.55;69.71;95278.88;5005718;28;20432;-84
2022/06/12 07:42:44;;;;;;;8.32;6.07;;;;;;;19.42;69.52;95273.66;4989215;28;20518;-84
2022/06/12 07:45:10;;;;;;;6.55;5.85;;;;;;;19.40;68.87;95284.78;5006083;28;20033;-82
2022/06/12 07:47:36;;;;;;;7.05;5.65;;;;;;;19.44;68.32;95282.44;5021690;28;20041;-84
2022/06/12 07:50:01;;;;;;;10.80;6.05;;;;;;;19.43;68.67;95283.47;5007271;28;20481;-84
2022/06/12 07:52:27;;;;;;;6.18;5.57;;;;;;;19.42;68.97;95289.97;5005664;28;20040;-83
2022/06/12 07:54:53;;;;;;;7.25;5.50;;;;;;;19.46;68.96;95292.00;4989257;28;20076;-84
2022/06/12 07:57:18;;;;;;;7.75;5.47;;;;;;;19.45;68.16;95284.06;5006883;28;20121;-82
2022/06/12 07:59:44;;;;;;;6.68;5.10;;;;;;;19.46;68.71;95288.47;5005238;28;20052;-83
2022/06/12 08:02:10;;;;;;;7.05;5.80;;;;;;;19.59;68.04;95296.38;4989533;28;20473;-84
2022/06/12 08:04:35;;;;;;;6.50;5.63;;;;;;;19.72;67.96;95289.00;5005867;28;20017;-83
2022/06/12 08:07:01;;;;;;;7.05;6.35;;;;;;;19.58;69.17;95294.72;5008645;28;20389;-84
2022/06/12 08:09:27;;;;;;;8.63;6.28;;;;;;;19.56;70.27;95296.84;5004333;28;20045;-83
2022/06/12 08:11:53;;;;;;;8.43;6.43;;;;;;;19.48;70.19;95297.19;4989156;28;20034;-85
2022/06/12 08:14:20;;;;;;;10.30;7.13;;;;;;;19.52;70.23;95295.66;5005032;28;20044;-84
2022/06/12 08:16:45;;;;;;;10.68;6.43;;;;;;;19.45;70.58;95297.66;4973041;28;20084;-84
2022/06/12 08:21:56;;;;;;;7.97;6.50;;;;;;;19.38;70.71;95293.19;4991106;28;20036;-85
2022/06/12 08:24:21;;;;;;;7.65;5.97;;;;;;;19.49;70.11;95296.94;4989203;28;20036;-84
2022/06/12 08:26:47;;;;;;;6.10;5.50;;;;;;;19.56;70.18;95307.72;4988122;28;20034;-84
2022/06/12 08:29:12;;;;;;;7.82;6.68;;;;;;;19.62;70.30;95312.19;5005558;28;20030;-84
2022/06/12 08:31:45;;;;;;;8.93;6.32;;;;;;;19.72;70.58;95306.16;5005930;28;20022;-86
2022/06/12 08:34:16;;;;;;;8.45;7.32;;;;;;;19.79;70.72;95307.94;5021974;28;20045;-85
2022/06/12 08:36:42;;;;;;;9.00;6.80;;;;;;;19.95;71.41;95312.66;4989556;28;20444;-84
2022/06/12 08:39:07;;;;;;;12.85;6.65;;;;;;;20.00;70.81;95310.03;5004938;28;20172;-82
2022/06/12 08:41:33;;;;;;;7.72;6.93;;;;;;;20.05;69.85;95308.50;5005129;28;20381;-84
2022/06/12 08:44:04;;;;;;;7.13;6.43;;;;;;;20.13;69.42;95306.22;5006088;28;20053;-84
2022/06/12 08:46:53;;;;;;;7.78;6.28;;;;;;;20.29;69.99;95316.59;5007740;28;20520;-85
2022/06/12 08:49:28;;;;;;;7.97;6.22;;;;;;;20.32;68.84;95318.84;5008404;28;20133;-85
2022/06/12 08:52:14;;;;;;;8.38;6.38;;;;;;;20.33;68.61;95315.88;4996047;28;20033;-84
2022/06/12 08:55:12;;;;;;;9.50;5.93;;;;;;;20.35;68.21;95316.47;4999263;28;20025;-84
2022/06/12 08:57:53;;;;;;;7.57;6.30;;;;;;;20.37;69.09;95317.06;5009665;28;20072;-85
2022/06/12 09:00:24;;;;;;;8.52;6.32;;;;;;;20.46;68.97;95314.78;5004673;28;20638;-85
2022/06/12 09:02:50;;;;;;;11.52;7.10;;;;;;;20.50;69.41;95313.22;4989032;28;20026;-83
2022/06/12 09:05:19;;;;;;;7.28;6.50;;;;;;;20.53;69.75;95302.91;4988281;28;20025;-83
2022/06/12 09:07:51;;;;;;;7.15;6.10;;;;;;;20.58;70.03;95313.91;5006622;28;20030;-85
2022/06/12 09:10:31;;;;;;;6.18;5.55;;;;;;;20.60;68.68;95304.41;5004781;28;20481;-84
2022/06/12 09:13:08;;;;;;;6.57;5.85;;;;;;;20.69;67.75;95318.47;5005152;28;20025;-84
2022/06/12 09:15:43;;;;;;;6.30;5.40;;;;;;;20.70;68.67;95316.59;5022431;28;20036;-84
2022/06/12 09:18:33;;;;;;;6.22;5.63;;;;;;;20.74;67.95;95310.41;5005004;28;20057;-84
2022/06/12 09:21:22;;;;;;;7.65;5.93;;;;;;;20.73;66.57;95314.16;5007721;28;20030;-84
2022/06/12 09:24:02;;;;;;;5.80;5.20;;;;;;;20.73;65.80;95314.16;5009025;28;20519;-84
2022/06/12 09:27:06;;;;;;;6.15;5.55;;;;;;;20.69;67.06;95321.19;5008640;28;20033;-84
2022/06/12 09:29:53;;;;;;;7.68;6.05;;;;;;;20.68;66.45;95321.44;5009076;28;20481;-84
2022/06/12 09:32:41;;;;;;;6.97;5.78;;;;;;;20.84;65.91;95323.38;5008054;28;20040;-85
2022/06/12 09:35:32;;;;;;;7.70;6.25;;;;;;;20.78;66.71;95318.88;5007946;28;20030;-85
2022/06/12 09:38:22;;;;;;;7.90;6.88;;;;;;;20.77;65.80;95319.13;4994280;28;20033;-86
2022/06/12 09:41:00;;;;;;;7.57;6.25;;;;;;;20.73;66.02;95321.53;5008048;28;20072;-85
2022/06/12 09:43:42;;;;;;;6.25;5.65;;;;;;;20.79;67.10;95323.28;5009403;28;20164;-85
2022/06/12 09:46:35;;;;;;;6.68;5.88;;;;;;;20.82;67.47;95328.25;5008171;28;20436;-84
2022/06/12 09:49:19;;;;;;;;;;;;;;;20.72;67.94;95328.03;5008548;28;20040;-85
2022/06/12 09:52:03;;;;;;;7.85;5.63;;;;;;;20.69;67.98;95323.09;5008188;28;19918;-84
2022/06/12 09:54:29;;;;;;;8.90;5.90;;;;;;;20.57;70.16;95326.69;5009299;28;20037;-85
2022/06/12 09:57:19;;;;;;;7.10;6.25;;;;;;;20.45;69.70;95318.56;5009471;28;20038;-83
2022/06/12 09:59:50;;;;;;;7.38;5.72;;;;;;;20.42;69.59;95319.06;5026628;28;20052;-86
2022/06/12 10:02:22;;;;;;;6.00;5.40;;;;;;;20.40;69.61;95309.47;4991612;28;20038;-85
2022/06/12 10:05:12;;;;;;;8.52;6.25;;;;;;;20.37;69.77;95318.94;4991596;28;20026;-84
2022/06/12 10:07:45;;;;;;;6.95;5.80;;;;;;;20.32;69.63;95314.22;5007640;28;20026;-86
2022/06/12 10:10:24;;;;;;;7.63;5.40;;;;;;;20.33;67.88;95318.59;4991345;28;20033;-85
2022/06/12 10:12:52;;;;;;;9.20;4.93;;;;;;;20.35;65.81;95313.75;4992413;28;20033;-84
2022/06/12 10:15:21;;;;;;;6.82;5.78;;;;;;;20.36;67.23;95311.88;4991237;28;20033;-87
2022/06/12 10:18:05;;;;;;;6.03;5.43;;;;;;;20.40;71.11;95313.03;4991444;28;20546;-84
2022/06/12 10:20:34;;;;;;;8.00;6.00;;;;;;;20.41;71.19;95305.69;5023713;28;20546;-86
2022/06/12 10:23:00;;;;;;;5.88;5.25;;;;;;;20.47;71.13;95304.72;5007474;28;20037;-85
2022/06/12 10:25:28;;;;;;;7.95;5.50;;;;;;;20.49;69.25;95308.84;5024848;28;20026;-85
2022/06/12 10:28:21;;;;;;;8.02;5.20;;;;;;;20.43;68.11;95304.38;5012550;28;20026;-83
2022/06/12 10:31:11;;;;;;;6.32;5.68;;;;;;;20.47;66.83;95310.16;5040033;28;20037;-84
2022/06/12 10:33:42;;;;;;;6.00;5.25;;;;;;;20.41;66.82;95303.78;5010112;28;20472;-86
2022/06/12 10:36:28;;;;;;;8.77;5.40;;;;;;;20.47;67.72;95302.00;5009826;28;20022;-84
2022/06/12 10:39:06;;;;;;;6.10;5.18;;;;;;;20.57;66.74;95301.34;4994056;28;20194;-84
2022/06/12 10:41:31;;;;;;;6.03;5.43;;;;;;;20.70;67.38;95305.69;5008985;28;20034;-85
2022/06/12 10:43:57;;;;;;;5.88;5.28;;;;;;;20.75;67.42;95309.31;5007111;28;20037;-84
2022/06/12 10:46:29;;;;;;;6.47;5.22;;;;;;;20.77;67.29;95303.63;4990821;28;20237;-85
2022/06/12 10:49:06;;;;;;;5.95;5.15;;;;;;;20.90;68.35;95304.38;4991047;28;20153;-86
2022/06/12 10:51:37;;;;;;;5.35;4.82;;;;;;;20.92;67.16;95305.00;5008399;28;20033;-85
2022/06/12 10:54:15;;;;;;;8.60;5.35;;;;;;;20.95;66.98;95304.50;4991308;28;20030;-84
2022/06/12 10:57:05;;;;;;;5.82;4.93;;;;;;;21.05;65.56;95290.22;5023936;28;20421;-84
2022/06/12 10:59:42;;;;;;;6.25;4.80;;;;;;;21.19;64.97;95293.44;5006521;28;20077;-83
2022/06/12 11:02:40;;;;;;;5.32;4.32;;;;;;;21.13;63.28;95284.34;5006590;28;20109;-86
2022/06/12 11:05:28;;;;;;;4.72;4.20;;;;;;;21.28;62.65;95286.47;5006645;28;20037;-84
2022/06/12 11:07:56;;;;;;;7.40;4.90;;;;;;;21.20;64.25;95284.19;5006933;28;20057;-84
2022/06/12 11:10:24;;;;;;;7.00;4.43;;;;;;;21.30;63.75;95295.25;5008003;28;20049;-84
2022/06/12 11:13:08;;;;;;;4.95;4.32;;;;;;;21.67;61.68;95282.13;5006763;28;20061;-84
2022/06/12 11:16:02;;;;;;;6.93;3.97;;;;;;;21.84;61.75;95287.59;5007444;28;20036;-85
2022/06/12 11:18:49;;;;;;;5.07;4.28;;;;;;;21.84;60.75;95284.84;5005499;28;20448;-84
2022/06/12 11:21:39;;;;;;;5.38;3.55;;;;;;;21.90;62.54;95278.38;5006286;28;20029;-83
2022/06/12 11:24:15;;;;;;;7.45;3.78;;;;;;;22.33;62.03;95284.09;5005885;28;20219;-85
2022/06/12 11:27:20;;;;;;;4.70;4.20;;;;;;;22.56;60.96;95287.63;5006065;28;20022;-83
2022/06/12 11:30:03;;;;;;;4.38;3.95;;;;;;;22.50;61.22;95283.19;5005872;28;20116;-83
2022/06/12 11:32:50;;;;;;;4.97;3.65;;;;;;;22.45;59.93;95296.78;5006125;28;20030;-84
2022/06/12 11:35:19;;;;;;;5.30;3.15;;;;;;;22.47;58.30;95275.50;5022843;28;20116;-83
2022/06/12 11:37:51;;;;;;;3.00;2.63;;;;;;;22.47;58.48;95287.22;5007887;28;20030;-84
2022/06/12 11:40:32;;;;;;;4.35;3.70;;;;;;;22.43;57.42;95274.34;5009950;28;20037;-84
2022/06/12 11:43:33;;;;;;;3.65;2.90;;;;;;;22.63;56.14;95286.63;5013067;28;20026;-83
2022/06/12 11:46:24;;;;;;;4.68;2.90;;;;;;;22.94;54.85;95282.25;5008768;28;20512;-83
2022/06/12 11:48:56;;;;;;;4.80;2.63;;;;;;;23.00;55.07;95271.38;5013584;28;20573;-84
2022/06/12 11:51:40;;;;;;;5.22;2.97;;;;;;;23.17;56.85;95277.53;5012787;28;20481;-83
2022/06/12 11:54:24;;;;;;;3.85;3.13;;;;;;;23.22;55.58;95268.53;5010218;28;20033;-83
2022/06/12 11:56:55;;;;;;;4.55;3.20;;;;;;;23.18;54.02;95256.47;5017203;28;20372;-86
2022/06/12 11:59:33;;;;;;;5.60;3.60;;;;;;;23.21;55.61;95264.16;5018768;28;20045;-84
2022/06/12 12:02:21;;;;;;;4.65;3.20;;;;;;;23.36;55.74;95254.41;5007419;28;20053;-82
2022/06/12 12:05:05;;;;;;;4.80;3.38;;;;;;;23.23;55.87;95255.69;5007137;28;20029;-84
2022/06/12 12:08:01;;;;;;;4.13;3.03;;;;;;;23.28;55.85;95262.00;5005591;28;20614;-84
2022/06/12 12:10:47;;;;;;;5.97;3.35;;;;;;;23.40;55.55;95248.19;5007044;28;20037;-84
2022/06/12 12:13:19;;;;;;;3.65;3.00;;;;;;;23.46;55.89;95252.59;5005433;28;20060;-84
2022/06/12 12:15:50;;;;;;;4.38;3.47;;;;;;;23.36;54.90;95251.69;5005241;28;20045;-83